Indian Springs, NV (89070)

7:51 AM PST on December 03, 2016 (GMT -0800)
Indian Springs Air Force Auxiliary | | Change Station

Elev 3133 ft 36.59 °N, 115.67 °W | Updated 53 minutes ago

Clear
Clear
25 °F
Feels Like 25 °F
N
0
Wind Variable Wind from North

Today
High -- | Low -- °F
--% Chance of Precip.
Yesterday
High -- | Low -- °F
Precip. -- in
Pressure 30.28 in
Visibility 10.0 miles
Clouds Clear
Dew Point 10 °F
Humidity 53%
Rainfall 0.00 in
Snow Depth Not available.
6:38 AM 4:26 PM
Waxing Crescent, 15% visible
METAR KINS 031458Z AUTO 00000KT 10SM CLR M04/M12 A3026 RMK AO2 SLP253 T10401123 53002 $
Pressure 30.28 in
Visibility 10.0 miles
Clouds Clear
Dew Point 10 °F
Humidity 53%
Rainfall 0.00 in
Snow Depth Not available.
6:38 AM 4:26 PM
Waxing Crescent, 15% visible
METAR KINS 031458Z AUTO 00000KT 10SM CLR M04/M12 A3026 RMK AO2 SLP253 T10401123 53002 $

10-Day Weather Forecast

Almanac

Astronomy

Dec. 03, 2016 Rise Set
Actual Time
Civil Twilight
Nautical Twilight
Astronomical Twilight
Moon
Length of Visible Light
Length of Day
Tomorrow will be .
, % of the Moon is Illuminated

Today's Extremes

State Highs State Lows

Community

WunderPhotos

Upload Photos

1,955,427 photos uploaded!

WunderBlog® & News

Nearby

Air Quality

  Air Quality AQ Index Pollutant
Not available.

Snow Depth

Station Depth Elevation

Earthquake Activity

City Distance Mag. Time & Date
Minimum magnitude displayed is 2.5.

Coastal Water Temperatures

Place Temperature

Stations

Nearby Weather Stations

Station Location Temp. Windchill Dew Point Humidity Wind Precip. Elev Updated Type
                   

Watches & Warnings

There are currently no watches in effect.